Jenner, Canada
Current Conditions -  °F | °C
As of 3:00 PM on Sunday 21 Dec 2014 (Local Time) from CYXH Reporting Station
Drizzle Drizzle  
Wind Chill: 24°   Ceiling: 5500
Heat Index: 34°   Visibility: 15mi
Dew Point: 30°   Wind: 16mph
Humidity: 87%   Direction: 290°WNW
Pressure: 29.39"   Gusts: NA
Location:  50.75°N, 111.18°W
Report Text: CYXH 212200Z 29014KT 15SM -DZ OVC055 01/M01 A2939 RMK SC8 SLP979
Loading
Personal Weather Stations






























Interactive Weather Map New forecast layout! Learn more

10-Day Weather Forecast

Advertisements
Track Severe Weather on mobile